Time;durP1;ratioP1;P1;durP2;ratioP2;P2;SDS_P1;SDS_P2;PMS_P1;PMS_P2;Temp;Humidity;BMP_temperature;BMP_pressure;BME280_temperature;BME280_humidity;BME280_pressure;Samples;Min_cycle;Max_cycle;Signal;HPM_P1;HPM_P2
2023/03/01 00:02:16;;;;;;;17.30;8.10;;;-3273.60;90.20;;;;;;5043574;28;20045;-72
2023/03/01 00:04:42;;;;;;;15.10;7.57;;;-3273.60;90.60;;;;;;5043545;28;20032;-72
2023/03/01 00:07:07;;;;;;;21.48;8.63;;;-3273.60;90.80;;;;;;5045332;28;20029;-72
2023/03/01 00:09:33;;;;;;;13.90;7.35;;;-3273.50;90.50;;;;;;5040366;28;20035;-72
2023/03/01 00:11:58;;;;;;;15.48;7.85;;;-3273.50;90.50;;;;;;5048799;28;20413;-72
2023/03/01 00:14:24;;;;;;;13.15;6.95;;;-3273.50;90.60;;;;;;5037044;28;20033;-72
2023/03/01 00:16:49;;;;;;;11.80;6.93;;;-3273.50;90.70;;;;;;5033682;28;20029;-72
2023/03/01 00:19:17;;;;;;;13.50;6.72;;;-3273.40;90.60;;;;;;5028641;28;20477;-72
2023/03/01 00:21:43;;;;;;;13.10;6.93;;;-3273.40;90.60;;;;;;5012927;28;20033;-72
2023/03/01 00:24:10;;;;;;;13.32;6.63;;;-3273.30;90.50;;;;;;5035867;28;20033;-72
2023/03/01 00:26:36;;;;;;;17.77;7.10;;;-3273.30;90.60;;;;;;5030682;28;20025;-72
2023/03/01 00:29:01;;;;;;;13.68;6.13;;;-3273.30;90.90;;;;;;5029319;28;20087;-72
2023/03/01 00:31:29;;;;;;;12.73;6.40;;;-3273.30;91.00;;;;;;5030995;28;20057;-72
2023/03/01 00:33:58;;;;;;;10.32;6.07;;;-3273.30;91.00;;;;;;5034443;28;20062;-72
2023/03/01 00:36:30;;;;;;;10.57;5.75;;;-3273.30;91.20;;;;;;5025354;28;20087;-72
2023/03/01 00:38:56;;;;;;;9.60;5.50;;;-3273.20;91.40;;;;;;5030084;28;20037;-72
2023/03/01 00:41:22;;;;;;;12.05;6.18;;;-3273.20;91.30;;;;;;5029364;28;20115;-72
2023/03/01 00:43:48;;;;;;;10.40;5.70;;;-3273.20;91.30;;;;;;5005931;28;20434;-72
2023/03/01 00:46:22;;;;;;;15.82;5.70;;;-3273.10;91.20;;;;;;5026379;28;20025;-72
2023/03/01 00:48:48;;;;;;;11.93;5.90;;;-3273.10;91.10;;;;;;5031291;28;20382;-72
2023/03/01 00:51:26;;;;;;;11.85;6.53;;;-3273.10;91.20;;;;;;5029661;28;20073;-72
2023/03/01 00:53:54;;;;;;;10.75;5.53;;;-3273.10;91.40;;;;;;5027307;28;20055;-72
2023/03/01 00:56:20;;;;;;;11.65;6.20;;;-3273.00;91.40;;;;;;5032638;28;20056;-72
2023/03/01 00:58:46;;;;;;;12.82;5.82;;;-3273.10;91.50;;;;;;5032318;28;20109;-72
2023/03/01 01:01:18;;;;;;;11.02;5.18;;;-3273.00;91.20;;;;;;5021325;28;20594;-72
2023/03/01 01:03:52;;;;;;;11.40;5.63;;;-3273.10;91.30;;;;;;5031552;28;20104;-72
2023/03/01 01:06:23;;;;;;;10.27;6.10;;;-3273.10;91.40;;;;;;5030167;28;20370;-72
2023/03/01 01:08:50;;;;;;;11.90;5.57;;;-3273.00;91.30;;;;;;5036953;28;20489;-72
2023/03/01 01:11:16;;;;;;;13.35;5.55;;;-3273.00;91.30;;;;;;5031317;28;20037;-72
2023/03/01 01:13:41;;;;;;;11.80;5.88;;;-3273.00;91.40;;;;;;5029481;28;20090;-72
2023/03/01 01:16:07;;;;;;;11.15;6.35;;;-3273.00;91.50;;;;;;5032972;28;20072;-72
2023/03/01 01:18:33;;;;;;;14.65;6.72;;;-3273.00;91.70;;;;;;5034065;28;20075;-72
2023/03/01 01:21:08;;;;;;;11.25;6.10;;;-3273.00;91.70;;;;;;5028755;28;20892;-72
2023/03/01 01:23:33;;;;;;;11.05;6.25;;;-3273.00;92.00;;;;;;5028945;28;20088;-72
2023/03/01 01:26:15;;;;;;;17.45;5.75;;;-3273.10;92.10;;;;;;5026502;28;20025;-72
2023/03/01 01:28:40;;;;;;;11.55;5.80;;;-3273.00;92.20;;;;;;5024178;28;20092;-72
2023/03/01 01:31:06;;;;;;;11.82;5.93;;;-3273.00;92.00;;;;;;5024044;28;20411;-72
2023/03/01 01:33:34;;;;;;;12.18;6.85;;;-3273.00;92.10;;;;;;5029781;28;20050;-72
2023/03/01 01:35:59;;;;;;;10.95;5.38;;;-3273.00;92.20;;;;;;5030363;28;20105;-72
2023/03/01 01:38:25;;;;;;;14.27;5.60;;;-3272.90;92.10;;;;;;5031809;28;20506;-72
2023/03/01 01:40:51;;;;;;;12.38;5.78;;;-3272.90;92.30;;;;;;5028268;28;20025;-72
2023/03/01 01:43:29;;;;;;;13.85;5.88;;;-3272.90;92.40;;;;;;5034184;28;20081;-72
2023/03/01 01:46:12;;;;;;;12.63;6.13;;;-3272.90;92.60;;;;;;5027976;28;20025;-72
2023/03/01 01:48:44;;;;;;;11.25;5.28;;;-3272.80;92.50;;;;;;5039124;28;20029;-72
2023/03/01 01:51:17;;;;;;;12.27;5.50;;;-3272.80;92.60;;;;;;5031278;28;20025;-72
2023/03/01 01:53:48;;;;;;;14.73;6.20;;;-3272.80;92.60;;;;;;5011876;28;20033;-72
2023/03/01 01:56:15;;;;;;;11.50;5.43;;;-3272.80;92.60;;;;;;5030063;28;20092;-72
2023/03/01 01:58:43;;;;;;;12.88;6.07;;;-3272.80;92.40;;;;;;5036569;28;20040;-72
2023/03/01 02:01:08;;;;;;;9.30;5.05;;;-3272.80;92.30;;;;;;5035928;28;20025;-72
2023/03/01 02:03:41;;;;;;;10.88;5.50;;;-3272.80;92.30;;;;;;5043613;28;20091;-72
2023/03/01 02:06:30;;;;;;;13.77;5.97;;;-3272.70;92.30;;;;;;5039380;28;20021;-72
2023/03/01 02:09:01;;;;;;;10.40;5.05;;;-3272.70;92.20;;;;;;5027459;28;20083;-72
2023/03/01 02:11:29;;;;;;;13.52;5.50;;;-3272.80;92.40;;;;;;5041462;28;20048;-72
2023/03/01 02:13:55;;;;;;;13.18;5.75;;;-3272.70;92.50;;;;;;5031252;28;20049;-72
2023/03/01 02:16:21;;;;;;;12.98;5.43;;;-3272.70;92.60;;;;;;5041002;28;20037;-72
2023/03/01 02:18:46;;;;;;;13.80;5.65;;;-3272.70;92.70;;;;;;5043901;28;20105;-72
2023/03/01 02:21:33;;;;;;;14.68;6.47;;;-3272.70;92.50;;;;;;5036895;28;20044;-72
2023/03/01 02:24:10;;;;;;;13.95;5.85;;;-3272.70;92.40;;;;;;5030020;28;20450;-72
2023/03/01 02:26:48;;;;;;;13.98;6.75;;;-3272.70;92.50;;;;;;5020881;28;20022;-72
2023/03/01 02:29:13;;;;;;;12.23;5.80;;;-3272.60;92.60;;;;;;5023636;28;20989;-72
2023/03/01 02:31:42;;;;;;;13.73;5.68;;;-3272.60;92.60;;;;;;5028621;28;20029;-72
2023/03/01 02:34:19;;;;;;;11.10;5.57;;;-3272.60;92.70;;;;;;5028928;28;20069;-72
2023/03/01 02:37:04;;;;;;;13.38;5.40;;;-3272.70;92.90;;;;;;5031323;28;20040;-72
2023/03/01 02:39:41;;;;;;;12.48;4.75;;;-3272.60;92.90;;;;;;5027755;28;20035;-72
2023/03/01 02:42:10;;;;;;;10.07;5.07;;;-3272.70;93.00;;;;;;5029135;28;20095;-72
2023/03/01 02:44:35;;;;;;;13.15;5.35;;;-3272.60;93.00;;;;;;5034471;28;20386;-72
2023/03/01 02:47:03;;;;;;;11.38;5.03;;;-3272.70;92.90;;;;;;5030849;28;20037;-72
2023/03/01 02:49:32;;;;;;;8.93;4.78;;;-3272.70;93.00;;;;;;5031263;28;20449;-72
2023/03/01 02:52:27;;;;;;;12.55;5.05;;;-3272.60;93.00;;;;;;5030651;28;20033;-72
2023/03/01 02:55:04;;;;;;;9.63;4.20;;;-3272.60;92.90;;;;;;5039494;28;20084;-72
2023/03/01 02:57:31;;;;;;;9.77;3.67;;;-3272.60;92.90;;;;;;5038588;28;20533;-72
2023/03/01 02:59:58;;;;;;;9.45;4.75;;;-3272.50;92.90;;;;;;5046117;28;21504;-72
2023/03/01 03:02:37;;;;;;;8.98;4.38;;;-3272.50;93.00;;;;;;5032661;28;20037;-72
2023/03/01 03:05:10;;;;;;;10.13;4.43;;;-3272.50;93.00;;;;;;5040116;28;20036;-72
2023/03/01 03:07:37;;;;;;;10.25;4.82;;;-3272.50;92.90;;;;;;5032783;28;20037;-72
2023/03/01 03:10:05;;;;;;;11.02;4.70;;;-3272.50;93.10;;;;;;5018632;28;20037;-72
2023/03/01 03:12:31;;;;;;;10.45;4.43;;;-3272.40;93.10;;;;;;5037899;28;20556;-72
2023/03/01 03:14:57;;;;;;;11.07;4.25;;;-3272.40;93.20;;;;;;5040512;28;20037;-72
2023/03/01 03:17:22;;;;;;;11.20;4.22;;;-3272.60;93.40;;;;;;5046296;28;20044;-72
2023/03/01 03:19:48;;;;;;;8.70;4.32;;;-3272.70;93.40;;;;;;5049650;28;20517;-72
2023/03/01 03:22:14;;;;;;;11.15;4.78;;;-3272.60;93.20;;;;;;5040818;28;20378;-72
2023/03/01 03:24:39;;;;;;;13.90;4.57;;;-3272.60;93.20;;;;;;5046662;28;20029;-72
2023/03/01 03:27:06;;;;;;;12.85;5.35;;;-3272.60;93.10;;;;;;5033330;28;20548;-72
2023/03/01 03:29:32;;;;;;;7.30;3.72;;;-3272.50;93.10;;;;;;5028183;28;20057;-72
2023/03/01 03:31:57;;;;;;;9.25;3.90;;;-3272.50;93.20;;;;;;5029885;28;20083;-72
2023/03/01 03:34:23;;;;;;;10.43;4.30;;;-3272.50;93.30;;;;;;5030891;28;20033;-72
2023/03/01 03:36:56;;;;;;;10.07;4.90;;;-3272.40;93.40;;;;;;5037738;28;20044;-72
2023/03/01 03:39:22;;;;;;;8.88;4.50;;;-3272.40;93.40;;;;;;5030966;28;20040;-72
2023/03/01 03:41:48;;;;;;;8.75;4.72;;;-3272.50;93.60;;;;;;5028217;28;20484;-72
2023/03/01 03:44:13;;;;;;;9.75;4.40;;;-3272.50;93.80;;;;;;5035132;28;20030;-72
2023/03/01 03:46:39;;;;;;;7.57;4.45;;;-3272.70;94.00;;;;;;5035272;28;20030;-72
2023/03/01 03:49:04;;;;;;;7.90;4.20;;;-3272.80;93.80;;;;;;5029569;28;20044;-72
2023/03/01 03:51:30;;;;;;;9.95;4.40;;;-3272.90;93.90;;;;;;5031506;28;20102;-72
2023/03/01 03:53:55;;;;;;;12.05;4.80;;;-3273.10;94.00;;;;;;5033294;28;20045;-72
2023/03/01 03:56:25;;;;;;;11.32;4.95;;;-3273.10;93.90;;;;;;5032239;28;20469;-72
2023/03/01 03:58:52;;;;;;;9.82;4.72;;;-3273.30;93.70;;;;;;5031385;28;20033;-72
2023/03/01 04:01:17;;;;;;;8.18;4.25;;;-3273.20;93.30;;;;;;5012638;28;20052;-72
2023/03/01 04:03:46;;;;;;;12.13;4.88;;;-3273.30;93.30;;;;;;5030277;28;20029;-72
2023/03/01 04:06:13;;;;;;;9.30;4.40;;;-3273.30;93.10;;;;;;5014218;28;20056;-72
2023/03/01 04:08:39;;;;;;;10.95;5.10;;;-3273.30;93.10;;;;;;5029709;28;20459;-72
2023/03/01 04:13:50;;;;;;;8.25;4.05;;;-3273.40;93.20;;;;;;5030491;28;20500;-72
2023/03/01 04:16:16;;;;;;;8.77;4.10;;;-3273.40;93.10;;;;;;5030342;28;20449;-73
2023/03/01 04:18:41;;;;;;;10.35;4.30;;;-3273.40;93.10;;;;;;5029643;28;20034;-72
2023/03/01 04:21:07;;;;;;;7.45;3.90;;;-3273.50;93.10;;;;;;5029425;28;20033;-72
2023/03/01 04:23:32;;;;;;;6.47;3.60;;;-3273.60;93.10;;;;;;5018818;28;20052;-73
2023/03/01 04:25:58;;;;;;;7.80;4.38;;;-3273.70;93.10;;;;;;5006437;28;20033;-73
2023/03/01 04:28:24;;;;;;;9.00;3.97;;;-3273.70;92.80;;;;;;5030622;28;20501;-73
2023/03/01 04:30:50;;;;;;;7.75;4.10;;;-3273.80;92.80;;;;;;5024160;28;20121;-73
2023/03/01 04:33:16;;;;;;;10.52;4.35;;;-3273.90;92.80;;;;;;5027108;28;20029;-72
2023/03/01 04:35:42;;;;;;;8.00;4.13;;;-3274.00;92.90;;;;;;5030413;28;20045;-73
2023/03/01 04:38:08;;;;;;;6.78;3.83;;;-3274.00;92.50;;;;;;5010660;28;20045;-73
2023/03/01 04:40:34;;;;;;;6.32;3.70;;;-3273.90;92.40;;;;;;5027935;28;20454;-72
2023/03/01 04:43:00;;;;;;;8.88;4.35;;;-3273.90;92.40;;;;;;5031448;28;20101;-73
2023/03/01 04:45:26;;;;;;;7.90;4.75;;;-3273.90;92.50;;;;;;5029631;28;20128;-72
2023/03/01 04:47:53;;;;;;;10.82;4.55;;;-3273.90;92.50;;;;;;5029923;28;20071;-73
2023/03/01 04:50:23;;;;;;;8.77;4.53;;;-3273.90;92.50;;;;;;5012799;28;20033;-72
2023/03/01 04:52:49;;;;;;;8.10;4.35;;;-3273.90;92.50;;;;;;5028069;28;20021;-73
2023/03/01 04:55:14;;;;;;;7.82;4.13;;;-3273.80;92.50;;;;;;5036611;28;20047;-73
2023/03/01 04:57:40;;;;;;;8.30;4.57;;;-3273.70;92.50;;;;;;5031341;28;20467;-72
2023/03/01 05:00:20;;;;;;;12.18;4.22;;;-3273.60;92.40;;;;;;5028576;28;20033;-73
2023/03/01 05:02:57;;;;;;;11.45;4.13;;;-3273.50;92.40;;;;;;5037928;28;20025;-73
2023/03/01 05:05:34;;;;;;;7.75;4.18;;;-3273.50;92.70;;;;;;5030935;28;20038;-73
2023/03/01 05:08:07;;;;;;;9.52;4.65;;;-3273.40;92.80;;;;;;5032820;28;20029;-73
2023/03/01 05:10:35;;;;;;;8.70;4.55;;;-3273.30;92.80;;;;;;5040497;28;20033;-72
2023/03/01 05:13:02;;;;;;;7.10;3.78;;;-3273.30;93.00;;;;;;5034599;28;20033;-73
2023/03/01 05:15:29;;;;;;;9.50;3.90;;;-3273.20;93.20;;;;;;5030615;28;20486;-73
2023/03/01 05:18:00;;;;;;;11.98;5.72;;;-3273.30;93.30;;;;;;5021313;28;20389;-73
2023/03/01 05:20:28;;;;;;;9.13;4.05;;;-3273.40;93.50;;;;;;5012833;28;20041;-73
2023/03/01 05:22:56;;;;;;;8.95;4.68;;;-3273.50;93.70;;;;;;5029600;28;20022;-73
2023/03/01 05:25:22;;;;;;;10.63;4.90;;;-3273.60;93.60;;;;;;5027870;28;20029;-73
2023/03/01 05:27:48;;;;;;;12.73;5.50;;;-3273.60;93.60;;;;;;5026749;28;20029;-73
2023/03/01 05:30:14;;;;;;;8.45;4.60;;;-3273.60;93.60;;;;;;5033409;28;20355;-71
2023/03/01 05:32:41;;;;;;;13.60;5.43;;;-3273.80;93.80;;;;;;5028930;28;20026;-72
2023/03/01 05:35:07;;;;;;;13.02;5.88;;;-3273.90;93.80;;;;;;5034171;28;20038;-72
2023/03/01 05:37:32;;;;;;;9.75;5.30;;;-3273.90;93.70;;;;;;5034547;28;20097;-72
2023/03/01 05:39:57;;;;;;;10.02;5.88;;;-3274.00;93.70;;;;;;5029362;28;20040;-72
2023/03/01 05:42:23;;;;;;;11.30;6.18;;;-3274.10;93.60;;;;;;5031228;28;20025;-72
2023/03/01 05:44:48;;;;;;;12.15;6.13;;;-3274.20;93.50;;;;;;5028958;28;20117;-72
2023/03/01 05:47:14;;;;;;;14.77;6.50;;;-3274.30;93.60;;;;;;5031701;28;20044;-72
2023/03/01 05:49:39;;;;;;;11.70;5.68;;;-3274.40;93.60;;;;;;5018074;28;20033;-72
2023/03/01 05:52:05;;;;;;;13.55;6.75;;;-3274.50;93.40;;;;;;5028780;28;20128;-73
2023/03/01 05:54:30;;;;;;;13.98;6.13;;;-3274.50;93.20;;;;;;5025086;28;20033;-73
2023/03/01 05:56:56;;;;;;;10.85;5.78;;;-3274.50;93.20;;;;;;5001215;28;20038;-73
2023/03/01 05:59:21;;;;;;;11.18;5.95;;;-3274.60;93.00;;;;;;5004853;28;20065;-73
2023/03/01 06:01:47;;;;;;;9.73;5.28;;;-3274.70;92.80;;;;;;5011571;28;20025;-73
2023/03/01 06:04:12;;;;;;;13.45;5.47;;;-3274.70;92.50;;;;;;5032161;28;20029;-73
2023/03/01 06:06:38;;;;;;;10.60;5.30;;;-3274.80;92.30;;;;;;5032014;28;20043;-73
2023/03/01 06:09:07;;;;;;;9.02;4.90;;;-3274.90;92.10;;;;;;5034639;28;20088;-73
2023/03/01 06:11:34;;;;;;;8.50;5.13;;;-3274.90;91.90;;;;;;5032807;28;20029;-73
2023/03/01 06:13:59;;;;;;;8.30;4.95;;;-3275.00;91.90;;;;;;5033234;28;20052;-73
2023/03/01 06:16:25;;;;;;;9.32;4.70;;;-3275.00;91.90;;;;;;5031363;28;20944;-73
2023/03/01 06:18:50;;;;;;;7.97;4.57;;;-3275.00;91.90;;;;;;5028525;28;20042;-72
2023/03/01 06:21:16;;;;;;;9.43;4.63;;;-3275.10;91.80;;;;;;5031535;28;20373;-73
2023/03/01 06:23:41;;;;;;;9.88;4.85;;;-3275.10;91.80;;;;;;5027438;28;20025;-73
2023/03/01 06:26:08;;;;;;;8.10;4.88;;;-3275.10;91.80;;;;;;5015207;28;20025;-72
2023/03/01 06:28:35;;;;;;;10.82;4.78;;;-3275.20;91.60;;;;;;5025130;28;20058;-73
2023/03/01 06:31:01;;;;;;;7.57;4.63;;;-3275.20;91.80;;;;;;4991176;28;20084;-72
2023/03/01 06:33:26;;;;;;;7.95;4.45;;;-3275.30;91.90;;;;;;5012524;28;20042;-72
2023/03/01 06:35:55;;;;;;;9.80;5.07;;;-3275.40;91.70;;;;;;5012402;28;20073;-72
2023/03/01 06:38:20;;;;;;;10.88;4.65;;;-3275.40;91.60;;;;;;5017640;28;20493;-72
2023/03/01 06:40:51;;;;;;;9.57;4.93;;;-3275.40;91.70;;;;;;5020471;28;20069;-72
2023/03/01 06:43:17;;;;;;;8.52;4.72;;;-3275.50;91.90;;;;;;5013100;28;20054;-72
2023/03/01 06:45:42;;;;;;;10.35;4.78;;;-3275.50;91.90;;;;;;5016614;28;20238;-72
2023/03/01 06:48:08;;;;;;;8.13;4.50;;;-3275.50;92.10;;;;;;5015785;28;20041;-73
2023/03/01 06:50:34;;;;;;;9.15;4.55;;;-3275.60;92.00;;;;;;5010190;28;20037;-72
2023/03/01 06:53:00;;;;;;;8.02;4.10;;;-3275.50;92.30;;;;;;5001217;28;20054;-73
2023/03/01 06:55:26;;;;;;;9.32;4.88;;;-3275.70;92.30;;;;;;5001745;28;20120;-73
2023/03/01 06:57:56;;;;;;;8.38;4.68;;;-3275.80;92.10;;;;;;5006128;28;20025;-72
2023/03/01 07:00:22;;;;;;;9.50;4.68;;;-3275.80;92.00;;;;;;5021236;28;20470;-72
2023/03/01 07:02:48;;;;;;;7.93;4.18;;;-3276.00;92.20;;;;;;5015368;28;20038;-72
2023/03/01 07:05:13;;;;;;;9.15;4.65;;;-3276.00;91.70;;;;;;5013667;28;20042;-72
2023/03/01 07:07:38;;;;;;;8.23;4.43;;;-3276.00;91.70;;;;;;5002669;28;20453;-72
2023/03/01 07:10:05;;;;;;;7.00;4.25;;;-3276.10;91.60;;;;;;5009540;28;20049;-72
2023/03/01 07:12:30;;;;;;;9.30;4.43;;;-3276.10;91.30;;;;;;5013367;28;20026;-72
2023/03/01 07:14:56;;;;;;;7.72;4.45;;;-3276.20;91.60;;;;;;5009830;28;20046;-72
2023/03/01 07:17:21;;;;;;;9.55;4.78;;;-3276.20;91.90;;;;;;5013062;28;20045;-72
2023/03/01 07:19:47;;;;;;;10.32;4.78;;;-3276.30;91.80;;;;;;5009399;28;20156;-72
2023/03/01 07:22:12;;;;;;;7.68;4.82;;;-3276.30;91.70;;;;;;5012524;28;20041;-72
2023/03/01 07:24:38;;;;;;;7.80;4.00;;;-3276.30;92.00;;;;;;5005025;28;20120;-72
2023/03/01 07:27:03;;;;;;;5.65;3.92;;;-3276.40;92.00;;;;;;5008333;28;20038;-72
2023/03/01 07:29:29;;;;;;;10.57;4.88;;;-3276.40;92.00;;;;;;4990951;28;20058;-72
2023/03/01 07:31:54;;;;;;;6.80;3.97;;;-3276.40;91.90;;;;;;5009301;28;20033;-72
2023/03/01 07:34:20;;;;;;;7.97;4.35;;;-3276.40;91.90;;;;;;5006719;28;20161;-72
2023/03/01 07:36:45;;;;;;;6.20;3.53;;;-3276.50;91.40;;;;;;5015860;28;20039;-72
2023/03/01 07:39:11;;;;;;;6.07;3.60;;;-3276.40;91.00;;;;;;5007924;28;20045;-72
2023/03/01 07:41:37;;;;;;;7.85;3.45;;;-3276.60;90.20;;;;;;5009002;28;20037;-72
2023/03/01 07:44:02;;;;;;;6.40;3.75;;;-3276.60;89.80;;;;;;5006109;28;20040;-76
2023/03/01 07:46:28;;;;;;;5.90;3.47;;;-3276.70;89.60;;;;;;5007716;28;20065;-75
2023/03/01 07:48:53;;;;;;;9.38;4.00;;;0.00;88.60;;;;;;5009499;28;20030;-75
2023/03/01 07:51:19;;;;;;;7.25;3.40;;;0.00;88.70;;;;;;5009773;28;20030;-74
2023/03/01 07:53:48;;;;;;;8.18;3.80;;;0.10;88.30;;;;;;4998870;28;20029;-74
2023/03/01 07:56:17;;;;;;;6.72;3.90;;;0.10;87.70;;;;;;4984322;28;20475;-74
2023/03/01 07:58:44;;;;;;;6.38;3.50;;;0.20;87.10;;;;;;5002172;28;20030;-74
2023/03/01 08:01:12;;;;;;;5.07;3.58;;;0.30;86.10;;;;;;5008605;28;20034;-74
2023/03/01 08:03:38;;;;;;;5.80;3.33;;;0.40;85.50;;;;;;5002855;28;20042;-75
2023/03/01 08:06:06;;;;;;;5.88;3.75;;;0.60;86.00;;;;;;5009641;28;20041;-74
2023/03/01 08:08:32;;;;;;;10.35;3.63;;;0.70;86.20;;;;;;5006767;28;20033;-74
2023/03/01 08:10:59;;;;;;;5.40;3.50;;;0.70;84.10;;;;;;5002141;28;20049;-74
2023/03/01 08:13:25;;;;;;;6.82;3.40;;;0.70;83.90;;;;;;5008288;28;20054;-74
2023/03/01 08:15:51;;;;;;;6.45;3.75;;;0.80;83.00;;;;;;5009573;28;20072;-74
2023/03/01 08:18:18;;;;;;;8.55;3.65;;;0.80;82.40;;;;;;5012003;28;20426;-74
2023/03/01 08:20:44;;;;;;;7.47;3.45;;;1.00;83.00;;;;;;5020210;28;20025;-74
2023/03/01 08:23:10;;;;;;;9.05;3.15;;;1.10;82.70;;;;;;5010912;28;20030;-74
2023/03/01 08:25:36;;;;;;;8.88;3.25;;;1.20;82.60;;;;;;5008865;28;20521;-74
2023/03/01 08:28:02;;;;;;;6.15;3.50;;;1.40;83.30;;;;;;5010012;28;20038;-73
2023/03/01 08:30:27;;;;;;;7.78;3.85;;;1.50;83.50;;;;;;5009620;28;20498;-74
2023/03/01 08:32:53;;;;;;;8.10;3.95;;;1.70;83.70;;;;;;5007807;28;20038;-74
2023/03/01 08:35:19;;;;;;;6.45;2.97;;;1.80;81.90;;;;;;5010842;28;20033;-74
2023/03/01 08:37:45;;;;;;;8.45;3.67;;;1.80;82.50;;;;;;5019430;28;20036;-73
2023/03/01 08:40:13;;;;;;;6.90;3.67;;;1.90;82.60;;;;;;4985237;28;20050;-73
2023/03/01 08:42:39;;;;;;;6.30;3.58;;;2.10;82.00;;;;;;5007485;28;20032;-73
2023/03/01 08:45:06;;;;;;;7.35;3.47;;;2.20;81.80;;;;;;5009418;28;20041;-74
2023/03/01 08:47:33;;;;;;;9.27;3.13;;;2.20;81.40;;;;;;5015228;28;20100;-73
2023/03/01 08:49:59;;;;;;;7.70;3.40;;;2.40;80.40;;;;;;5006146;28;20374;-74
2023/03/01 08:52:24;;;;;;;7.80;4.15;;;2.40;81.00;;;;;;5004097;28;20044;-74
2023/03/01 08:54:50;;;;;;;6.70;3.33;;;2.50;81.20;;;;;;4995879;28;20022;-73
2023/03/01 08:57:15;;;;;;;9.52;5.20;;;2.60;80.70;;;;;;5014844;28;20116;-73
2023/03/01 08:59:41;;;;;;;10.95;3.58;;;2.70;81.00;;;;;;5016429;28;20041;-74
2023/03/01 09:02:12;;;;;;;6.03;3.08;;;2.70;79.10;;;;;;5012611;28;20033;-74
2023/03/01 09:04:38;;;;;;;6.20;3.10;;;2.80;78.90;;;;;;5015916;28;20377;-74
2023/03/01 09:07:03;;;;;;;6.82;3.00;;;2.70;77.10;;;;;;5020481;28;20112;-74
2023/03/01 09:09:29;;;;;;;5.88;2.92;;;2.70;76.00;;;;;;5014125;28;20113;-73
2023/03/01 09:11:54;;;;;;;13.93;4.53;;;2.80;75.00;;;;;;4991728;28;20608;-73
2023/03/01 09:14:20;;;;;;;11.13;3.20;;;2.80;75.80;;;;;;5013341;28;20084;-73
2023/03/01 09:16:46;;;;;;;5.47;3.00;;;3.00;75.50;;;;;;4993778;28;20037;-73
2023/03/01 09:19:11;;;;;;;5.55;2.95;;;3.10;76.00;;;;;;5012210;28;20454;-74
2023/03/01 09:21:37;;;;;;;6.10;3.30;;;3.20;75.00;;;;;;4996880;28;20060;-74
2023/03/01 09:24:02;;;;;;;6.03;2.92;;;3.30;73.50;;;;;;5020894;28;20033;-73
2023/03/01 09:26:28;;;;;;;6.85;3.05;;;3.40;73.00;;;;;;5011477;28;20516;-74
2023/03/01 09:28:55;;;;;;;7.15;3.42;;;3.50;73.80;;;;;;5018893;28;20052;-74
2023/03/01 09:31:23;;;;;;;7.18;3.47;;;3.60;72.30;;;;;;5033361;28;20109;-74
2023/03/01 09:33:51;;;;;;;6.47;3.53;;;3.70;72.50;;;;;;5041460;28;20045;-74
2023/03/01 09:36:21;;;;;;;7.80;3.33;;;3.60;71.80;;;;;;5036937;28;20107;-74
2023/03/01 09:38:48;;;;;;;6.70;3.80;;;3.90;73.60;;;;;;5032612;28;21517;-74
2023/03/01 09:41:51;;;;;;;5.55;3.47;;;3.80;71.80;;;;;;5039780;28;20061;-74
2023/03/01 09:44:22;;;;;;;6.82;3.60;;;3.70;72.70;;;;;;5030869;28;20112;-73
2023/03/01 09:46:48;;;;;;;7.75;3.55;;;4.00;74.10;;;;;;5038686;28;20385;-74
2023/03/01 09:49:23;;;;;;;6.72;3.78;;;3.90;72.40;;;;;;5035281;28;20036;-74
2023/03/01 09:52:21;;;;;;;6.70;3.58;;;4.30;73.90;;;;;;5039118;28;20035;-74
2023/03/01 09:54:51;;;;;;;6.72;3.70;;;4.50;72.80;;;;;;5037000;28;20032;-73
2023/03/01 09:57:36;;;;;;;8.18;4.30;;;4.60;73.00;;;;;;5027706;28;20116;-74
2023/03/01 10:00:14;;;;;;;8.55;4.25;;;4.80;71.40;;;;;;5036105;28;20180;-74
2023/03/01 10:02:48;;;;;;;9.18;4.10;;;4.90;72.20;;;;;;5036706;28;20029;-74
2023/03/01 10:05:43;;;;;;;7.80;4.20;;;5.10;71.60;;;;;;5034655;28;20037;-74
2023/03/01 10:08:27;;;;;;;8.60;4.25;;;5.10;71.60;;;;;;5022910;28;20053;-73
2023/03/01 10:10:53;;;;;;;7.75;4.65;;;4.90;71.00;;;;;;5032918;28;20056;-73
2023/03/01 10:13:45;;;;;;;7.95;4.35;;;5.10;71.80;;;;;;5000298;28;20129;-73
2023/03/01 10:16:47;;;;;;;10.95;4.53;;;5.20;72.40;;;;;;5048272;28;20037;-74
2023/03/01 10:19:22;;;;;;;11.38;5.03;;;5.40;72.30;;;;;;5004085;28;20042;-73
2023/03/01 10:21:50;;;;;;;7.38;4.57;;;5.50;72.40;;;;;;5015646;28;20032;-72
2023/03/01 10:24:21;;;;;;;8.35;5.00;;;5.70;72.80;;;;;;5026025;28;20033;-72
2023/03/01 10:26:58;;;;;;;6.70;4.47;;;5.70;71.40;;;;;;5031311;28;20112;-73
2023/03/01 10:29:45;;;;;;;9.82;5.03;;;5.70;71.20;;;;;;5031400;28;20049;-72
2023/03/01 10:32:11;;;;;;;8.88;4.93;;;5.90;71.50;;;;;;5022316;28;20033;-73
2023/03/01 10:34:36;;;;;;;8.00;4.80;;;6.20;70.30;;;;;;5040175;28;20100;-72
2023/03/01 10:37:15;;;;;;;9.43;5.00;;;6.30;69.60;;;;;;5040941;28;20046;-73
2023/03/01 10:40:07;;;;;;;8.13;4.65;;;6.10;69.90;;;;;;5037892;28;20072;-73
2023/03/01 10:42:38;;;;;;;9.65;4.38;;;6.40;70.50;;;;;;5025866;28;20060;-73
2023/03/01 10:45:34;;;;;;;7.78;4.82;;;6.50;69.80;;;;;;5035185;28;20103;-74
2023/03/01 10:48:13;;;;;;;9.82;5.10;;;6.50;68.80;;;;;;5033213;28;20044;-73
2023/03/01 10:50:43;;;;;;;9.45;5.55;;;6.50;68.40;;;;;;5033344;28;20048;-73
2023/03/01 10:53:24;;;;;;;7.10;4.72;;;6.70;68.60;;;;;;5028672;28;20115;-73
2023/03/01 10:56:17;;;;;;;8.52;5.22;;;6.80;68.80;;;;;;5032106;28;20679;-73
2023/03/01 10:59:04;;;;;;;8.52;5.15;;;7.00;69.40;;;;;;5031158;28;20045;-73
2023/03/01 11:01:32;;;;;;;9.13;5.30;;;7.30;68.40;;;;;;5041485;28;20036;-73
2023/03/01 11:04:07;;;;;;;9.13;5.78;;;7.70;68.90;;;;;;5036833;28;20078;-73
2023/03/01 11:06:37;;;;;;;12.48;5.95;;;7.80;66.50;;;;;;5042224;28;20544;-73
2023/03/01 11:09:20;;;;;;;10.17;6.47;;;7.80;67.30;;;;;;5023599;28;20092;-73
2023/03/01 11:11:51;;;;;;;9.27;5.90;;;7.80;66.00;;;;;;5036759;28;20037;-73
2023/03/01 11:14:21;;;;;;;9.35;6.03;;;7.90;66.30;;;;;;5036697;28;20059;-73
2023/03/01 11:16:58;;;;;;;10.07;5.72;;;8.20;66.90;;;;;;5039945;28;20044;-73
2023/03/01 11:19:23;;;;;;;10.75;6.07;;;8.60;66.00;;;;;;5045517;28;20458;-73
2023/03/01 11:22:01;;;;;;;10.52;5.72;;;8.60;65.10;;;;;;5041540;28;20041;-73
2023/03/01 11:24:37;;;;;;;10.43;5.82;;;8.70;65.60;;;;;;5039883;28;20033;-73
2023/03/01 11:27:08;;;;;;;8.90;5.20;;;9.00;64.40;;;;;;5032774;28;20116;-75
2023/03/01 11:29:41;;;;;;;10.45;6.03;;;9.00;64.10;;;;;;5023308;28;20051;-73
2023/03/01 11:32:10;;;;;;;9.45;5.65;;;8.50;65.40;;;;;;5028653;28;20033;-73
2023/03/01 11:34:53;;;;;;;8.50;5.70;;;8.50;64.90;;;;;;5028067;28;20021;-73
2023/03/01 11:37:26;;;;;;;10.77;6.07;;;8.40;65.10;;;;;;5030372;28;20108;-73
2023/03/01 11:39:59;;;;;;;9.45;6.45;;;8.30;65.40;;;;;;5043232;28;20029;-73
2023/03/01 11:42:45;;;;;;;9.65;6.32;;;8.60;65.90;;;;;;5030736;28;20022;-74
2023/03/01 11:45:12;;;;;;;8.90;6.25;;;8.90;66.20;;;;;;5029890;28;20032;-73
2023/03/01 11:48:05;;;;;;;9.27;6.00;;;9.30;63.40;;;;;;5029378;28;20033;-72
2023/03/01 11:50:35;;;;;;;10.15;6.28;;;9.10;63.20;;;;;;5034290;28;20033;-71
2023/03/01 11:53:33;;;;;;;10.38;6.60;;;9.30;64.90;;;;;;5032307;28;20033;-74
2023/03/01 11:56:13;;;;;;;13.07;6.65;;;9.80;62.60;;;;;;5008723;28;20049;-71
2023/03/01 11:59:02;;;;;;;9.95;6.60;;;10.10;62.40;;;;;;5032487;28;20021;-71
2023/03/01 12:01:54;;;;;;;12.43;6.85;;;9.90;61.10;;;;;;5029383;28;20034;-70
2023/03/01 12:04:56;;;;;;;9.07;6.30;;;10.40;62.50;;;;;;5030499;28;20096;-71
2023/03/01 12:07:56;;;;;;;9.95;6.90;;;10.40;60.60;;;;;;5028871;28;20022;-71
2023/03/01 12:10:55;;;;;;;8.75;6.35;;;10.60;60.10;;;;;;5034065;28;20076;-72
2023/03/01 12:13:49;;;;;;;9.95;6.35;;;10.50;60.20;;;;;;5031245;28;20029;-71
2023/03/01 12:16:32;;;;;;;10.65;6.85;;;10.30;60.70;;;;;;5033392;28;20038;-73
2023/03/01 12:19:24;;;;;;;10.85;6.70;;;10.40;61.50;;;;;;5025978;28;20037;-71
2023/03/01 12:22:08;;;;;;;;;;;11.00;62.60;;;;;;5027738;28;20029;-72
2023/03/01 12:25:02;;;;;;;11.73;7.22;;;11.30;61.20;;;;;;5022559;28;20368;-72
2023/03/01 12:27:51;;;;;;;10.77;7.43;;;11.60;60.00;;;;;;5033016;28;20461;-72
2023/03/01 12:30:38;;;;;;;9.55;7.13;;;11.50;59.00;;;;;;5031401;28;20053;-72
2023/03/01 12:33:29;;;;;;;10.88;6.90;;;11.90;59.40;;;;;;5031203;28;20456;-72
2023/03/01 12:36:16;;;;;;;9.73;6.68;;;11.70;57.80;;;;;;5003168;28;20068;-71
2023/03/01 12:39:04;;;;;;;10.98;7.07;;;12.00;60.50;;;;;;5037150;28;20088;-73
2023/03/01 12:41:46;;;;;;;12.10;7.35;;;12.20;58.50;;;;;;5010935;28;20394;-73
2023/03/01 12:44:39;;;;;;;10.30;6.82;;;12.40;56.20;;;;;;5033426;28;20123;-73
2023/03/01 12:47:44;;;;;;;11.63;6.93;;;12.40;56.10;;;;;;5034603;28;20385;-70
2023/03/01 12:50:13;;;;;;;11.75;6.35;;;11.50;59.10;;;;;;5025297;28;20033;-71